createdAt,value
2018-01-21T00:01:09.979Z,0.76
2018-01-21T00:03:10.253Z,0.58
2018-01-21T00:04:10.016Z,0.6
2018-01-21T00:05:10.307Z,0.55
2018-01-21T00:07:10.303Z,0.6
2018-01-21T00:08:10.319Z,0.61
2018-01-21T00:09:10.087Z,0.57
2018-01-21T00:10:10.202Z,0.6
2018-01-21T00:11:10.125Z,0.65
2018-01-21T00:12:25.078Z,0.61
2018-01-21T00:13:10.144Z,0.61
2018-01-21T00:14:10.152Z,0.66
2018-01-21T00:15:25.099Z,0.61
2018-01-21T00:16:10.206Z,0.62
2018-01-21T00:17:10.438Z,0.62
2018-01-21T00:18:09.964Z,0.6
2018-01-21T00:19:10.516Z,0.61
2018-01-21T00:20:10.498Z,0.7
2018-01-21T00:21:10.260Z,0.65
2018-01-21T00:22:10.501Z,0.62
2018-01-21T00:23:24.952Z,0.51
2018-01-21T00:24:10.552Z,0.57
2018-01-21T00:25:10.573Z,0.58
2018-01-21T00:27:10.586Z,0.47
2018-01-21T00:28:10.335Z,0.53
2018-01-21T00:29:10.644Z,0.46
2018-01-21T00:30:10.376Z,0.47
2018-01-21T00:31:10.389Z,0.5
2018-01-21T00:32:10.392Z,0.42
2018-01-21T00:33:10.770Z,0.47
2018-01-21T00:34:10.422Z,0.51
2018-01-21T00:35:10.700Z,0.6
2018-01-21T00:36:10.448Z,0.51
2018-01-21T00:37:10.444Z,0.53
2018-01-21T00:39:10.741Z,0.46
2018-01-21T00:40:10.495Z,0.5
2018-01-21T00:42:25.452Z,0.57
2018-01-21T00:43:10.530Z,0.65
2018-01-21T00:44:25.468Z,0.6
2018-01-21T00:45:10.573Z,0.51
2018-01-21T00:46:10.814Z,0.55
2018-01-21T00:47:25.504Z,0.65
2018-01-21T00:48:10.352Z,0.65
2018-01-21T00:49:10.851Z,0.61
2018-01-21T00:50:10.626Z,0.6
2018-01-21T00:51:10.390Z,0.62
2018-01-21T00:52:10.671Z,0.65
2018-01-21T00:53:10.904Z,0.68
2018-01-21T00:54:10.444Z,0.68
2018-01-21T00:55:10.732Z,0.72
2018-01-21T00:56:10.969Z,0.84
2018-01-21T00:57:10.716Z,0.79
2018-01-21T00:58:10.997Z,0.7
2018-01-21T00:59:10.735Z,0.72
2018-01-21T01:00:10.990Z,0.72
2018-01-21T01:01:10.756Z,0.76
2018-01-21T01:02:11.057Z,0.66
2018-01-21T01:03:25.712Z,0.68
2018-01-21T01:04:10.820Z,0.61
2018-01-21T01:05:11.065Z,0.69
2018-01-21T01:07:10.966Z,0.75
2018-01-21T01:08:10.611Z,0.79
2018-01-21T01:09:10.614Z,0.76
2018-01-21T01:10:10.873Z,0.87
2018-01-21T01:11:10.663Z,0.87
2018-01-21T01:12:11.277Z,0.9
2018-01-21T01:13:11.160Z,0.93
2018-01-21T01:14:11.193Z,1.02
2018-01-21T01:15:10.969Z,0.98
2018-01-21T01:16:25.641Z,0.98
2018-01-21T01:17:11.216Z,0.94
2018-01-21T01:18:11.273Z,0.87
2018-01-21T01:20:11.294Z,1.04
2018-01-21T01:21:11.284Z,0.98
2018-01-21T01:22:11.277Z,1.04
2018-01-21T01:23:10.789Z,0.94
2018-01-21T01:24:11.331Z,0.93
2018-01-21T01:25:11.421Z,0.93
2018-01-21T01:26:11.456Z,1.06
2018-01-21T01:27:11.342Z,0.98
2018-01-21T01:28:11.376Z,1.15
2018-01-21T01:29:11.396Z,1.11
2018-01-21T01:30:26.079Z,1.04
2018-01-21T01:31:11.144Z,1.04
2018-01-21T01:32:11.168Z,1.04
2018-01-21T01:33:11.459Z,1.06
2018-01-21T01:34:11.450Z,0.98
2018-01-21T01:36:11.248Z,1.02
2018-01-21T01:37:11.246Z,1.04
2018-01-21T01:38:11.355Z,1.11
2018-01-21T01:39:11.495Z,1.11
2018-01-21T01:40:11.261Z,1.02
2018-01-21T01:41:11.527Z,1.11
2018-01-21T01:42:11.390Z,1.06
2018-01-21T01:43:11.317Z,1.15
2018-01-21T01:44:11.571Z,0.97
2018-01-21T01:45:11.343Z,1.02
2018-01-21T01:46:11.360Z,1.04
2018-01-21T01:47:26.289Z,1.08
2018-01-21T01:48:11.634Z,1.12
2018-01-21T01:49:11.652Z,1.15
2018-01-21T01:50:26.328Z,1.05
2018-01-21T01:51:11.674Z,1.12
2018-01-21T01:52:11.719Z,1.06
2018-01-21T01:53:11.437Z,1.02
2018-01-21T01:54:11.700Z,1.04
2018-01-21T01:55:11.472Z,1.06
2018-01-21T01:56:11.478Z,1.04
2018-01-21T01:57:11.782Z,1.09
2018-01-21T01:58:11.518Z,0.98
2018-01-21T01:59:11.760Z,1.2
2018-01-21T02:00:11.521Z,1.06
2018-01-21T02:01:26.470Z,1.05
2018-01-21T02:02:26.488Z,1.04
2018-01-21T02:03:11.558Z,1.05
2018-01-21T02:04:11.820Z,1
2018-01-21T02:05:11.843Z,1.09
2018-01-21T02:06:11.872Z,1.09
2018-01-21T02:07:11.613Z,1.14
2018-01-21T02:08:11.883Z,1.08
2018-01-21T02:09:11.898Z,1.05
2018-01-21T02:10:11.683Z,1.04
2018-01-21T02:11:11.685Z,1.06
2018-01-21T02:12:11.786Z,1.12
2018-01-21T02:13:11.939Z,1
2018-01-21T02:14:11.705Z,1.16
2018-01-21T02:15:11.967Z,0.98
2018-01-21T02:16:12.000Z,1.15
2018-01-21T02:17:12.087Z,1.06
2018-01-21T02:18:11.788Z,1.04
2018-01-21T02:19:11.772Z,1.2
2018-01-21T02:20:12.030Z,1.18
2018-01-21T02:21:26.748Z,1.15
2018-01-21T02:22:26.736Z,1
2018-01-21T02:23:11.844Z,1.12
2018-01-21T02:24:12.088Z,1.2
2018-01-21T02:25:12.111Z,1.06
2018-01-21T02:26:11.858Z,1.12
2018-01-21T02:27:12.125Z,1.09
2018-01-21T02:28:12.152Z,1.09
2018-01-21T02:29:12.183Z,1.09
2018-01-21T02:30:12.186Z,1.11
2018-01-21T02:31:12.177Z,1.09
2018-01-21T02:32:12.190Z,1.09
2018-01-21T02:33:12.199Z,1.11
2018-01-21T02:34:12.334Z,1.12
2018-01-21T02:35:11.986Z,1
2018-01-21T02:36:12.263Z,0.93
2018-01-21T02:37:12.121Z,0.97
2018-01-21T02:38:26.957Z,0.96
2018-01-21T02:39:12.058Z,1.04
2018-01-21T02:40:12.154Z,0.96
2018-01-21T02:41:12.057Z,1.02
2018-01-21T02:42:12.450Z,0.91
2018-01-21T02:44:11.859Z,1
2018-01-21T02:45:12.404Z,0.98
2018-01-21T02:46:12.146Z,0.94
2018-01-21T02:47:12.411Z,1
2018-01-21T02:48:12.148Z,1.04
2018-01-21T02:49:12.429Z,1
2018-01-21T02:50:12.462Z,1.02
2018-01-21T02:51:12.439Z,1
2018-01-21T02:52:12.238Z,0.97
2018-01-21T02:53:12.588Z,1.04
2018-01-21T02:54:27.155Z,1.04
2018-01-21T02:55:12.512Z,1.11
2018-01-21T02:56:12.499Z,1.16
2018-01-21T02:57:12.363Z,1.16
2018-01-21T02:58:12.295Z,1.15
2018-01-21T02:59:12.311Z,1.09
2018-01-21T03:00:27.247Z,1.16
2018-01-21T03:01:12.330Z,1
2018-01-21T03:02:12.191Z,1.12
2018-01-21T03:03:27.021Z,1
2018-01-21T03:04:12.604Z,0.97
2018-01-21T03:05:12.383Z,1.04
2018-01-21T03:06:12.671Z,1.02
2018-01-21T03:07:12.670Z,1.04
2018-01-21T03:08:12.411Z,1.02
2018-01-21T03:09:12.685Z,1.06
2018-01-21T03:10:27.360Z,0.98
2018-01-21T03:11:12.451Z,1.06
2018-01-21T03:12:12.322Z,0.96
2018-01-21T03:13:12.483Z,0.96
2018-01-21T03:14:12.503Z,1.02
2018-01-21T03:15:12.767Z,1.02
2018-01-21T03:17:12.797Z,1.11
2018-01-21T03:18:12.786Z,1.12
2018-01-21T03:19:12.802Z,1.05
2018-01-21T03:20:12.837Z,0.96
2018-01-21T03:21:12.613Z,1.02
2018-01-21T03:22:12.692Z,1.02
2018-01-21T03:23:12.664Z,0.98
2018-01-21T03:24:12.646Z,1.02
2018-01-21T03:26:12.913Z,1
2018-01-21T03:27:12.691Z,1.06
2018-01-21T03:28:13.037Z,0.98
2018-01-21T03:30:12.702Z,1.04
2018-01-21T03:31:12.963Z,1.15
2018-01-21T03:32:13.030Z,1
2018-01-21T03:33:13.077Z,1
2018-01-21T03:34:13.012Z,1.06
2018-01-21T03:35:12.778Z,1.06
2018-01-21T03:36:12.767Z,1.24
2018-01-21T03:37:13.030Z,1.18
2018-01-21T03:38:27.485Z,1.16
2018-01-21T03:39:13.065Z,1.05
2018-01-21T03:40:12.836Z,1.04
2018-01-21T03:41:12.602Z,1.16
2018-01-21T03:42:12.865Z,1.2
2018-01-21T03:43:13.233Z,1.2
2018-01-21T03:44:13.148Z,1.12
2018-01-21T03:45:12.881Z,1.22
2018-01-21T03:46:12.920Z,1.14
2018-01-21T03:47:13.185Z,1.16
2018-01-21T03:49:13.179Z,1.26
2018-01-21T03:50:12.697Z,1.22
2018-01-21T03:52:12.984Z,1.34
2018-01-21T03:53:13.241Z,1.3
2018-01-21T03:54:12.768Z,1.32
2018-01-21T03:55:12.863Z,1.3
2018-01-21T03:56:13.295Z,1.26
2018-01-21T03:57:27.982Z,1.26
2018-01-21T03:58:13.299Z,1.2
2018-01-21T03:59:13.339Z,1.27
2018-01-21T04:00:13.451Z,1.14
2018-01-21T04:01:13.366Z,1.23
2018-01-21T04:02:13.125Z,1.24
2018-01-21T04:03:13.416Z,1.23
2018-01-21T04:04:12.880Z,1.3
2018-01-21T04:06:13.409Z,1.33
2018-01-21T04:07:13.536Z,1.29
2018-01-21T04:08:13.209Z,1.3
2018-01-21T04:09:13.229Z,1.3
2018-01-21T04:10:13.458Z,1.32
2018-01-21T04:11:12.983Z,1.34
2018-01-21T04:12:12.996Z,1.29
2018-01-21T04:13:28.179Z,1.27
2018-01-21T04:14:13.278Z,1.3
2018-01-21T04:15:13.283Z,1.27
2018-01-21T04:16:13.298Z,1.23
2018-01-21T04:17:13.432Z,1.24
2018-01-21T04:18:13.319Z,1.24
2018-01-21T04:19:13.579Z,1.26
2018-01-21T04:20:13.338Z,1.26
2018-01-21T04:21:13.377Z,1.24
2018-01-21T04:22:13.643Z,1.26
2018-01-21T04:23:13.654Z,1.2
2018-01-21T04:24:28.348Z,1.32
2018-01-21T04:25:13.700Z,1.3
2018-01-21T04:26:13.168Z,1.41
2018-01-21T04:27:13.430Z,1.33
2018-01-21T04:28:13.456Z,1.45
2018-01-21T04:29:28.392Z,1.36
2018-01-21T04:30:13.510Z,1.34
2018-01-21T04:31:13.771Z,1.37
2018-01-21T04:32:13.541Z,1.37
2018-01-21T04:33:13.505Z,1.36
2018-01-21T04:34:13.392Z,1.32
2018-01-21T04:35:13.785Z,1.41
2018-01-21T04:36:13.311Z,1.34
2018-01-21T04:37:13.311Z,1.36
2018-01-21T04:38:13.608Z,1.41
2018-01-21T04:39:13.585Z,1.41
2018-01-21T04:40:13.624Z,1.33
2018-01-21T04:41:13.634Z,1.44
2018-01-21T04:42:13.884Z,1.42
2018-01-21T04:43:13.640Z,1.44
2018-01-21T04:44:13.913Z,1.29
2018-01-21T04:45:28.596Z,1.34
2018-01-21T04:47:13.721Z,1.33
2018-01-21T04:48:13.758Z,1.32
2018-01-21T04:49:13.994Z,1.3
2018-01-21T04:50:13.773Z,1.37
2018-01-21T04:51:13.764Z,1.36
2018-01-21T04:52:13.858Z,1.44
2018-01-21T04:53:14.045Z,1.45
2018-01-21T04:54:14.038Z,1.41
2018-01-21T04:55:14.092Z,1.32
2018-01-21T04:56:14.076Z,1.33
2018-01-21T04:57:28.755Z,1.22
2018-01-21T04:58:13.855Z,1.24
2018-01-21T04:59:13.613Z,1.29
2018-01-21T05:00:28.796Z,1.32
2018-01-21T05:01:13.890Z,1.36
2018-01-21T05:02:13.898Z,1.32
2018-01-21T05:03:14.172Z,1.37
2018-01-21T05:04:14.187Z,1.33
2018-01-21T05:05:13.706Z,1.45
2018-01-21T05:06:13.968Z,1.4
2018-01-21T05:07:14.247Z,1.4
2018-01-21T05:08:13.981Z,1.41
2018-01-21T05:09:14.011Z,1.45
2018-01-21T05:11:14.298Z,1.36
2018-01-21T05:12:14.297Z,1.41
2018-01-21T05:13:14.044Z,1.51
2018-01-21T05:14:14.327Z,1.32
2018-01-21T05:15:28.994Z,1.37
2018-01-21T05:16:14.097Z,1.32
2018-01-21T05:17:14.122Z,1.36
2018-01-21T05:18:14.348Z,1.41
2018-01-21T05:19:14.391Z,1.36
2018-01-21T05:20:14.374Z,1.36
2018-01-21T05:21:13.896Z,1.42
2018-01-21T05:22:14.424Z,1.44
2018-01-21T05:23:14.441Z,1.44
2018-01-21T05:25:14.443Z,1.5
2018-01-21T05:26:13.964Z,1.4
2018-01-21T05:27:14.473Z,1.4
2018-01-21T05:28:14.231Z,1.42
2018-01-21T05:29:14.513Z,1.42
2018-01-21T05:30:14.525Z,1.36
2018-01-21T05:31:14.287Z,1.44
2018-01-21T05:32:29.235Z,1.3
2018-01-21T05:33:14.305Z,1.44
2018-01-21T05:34:14.317Z,1.4
2018-01-21T05:35:14.573Z,1.41
2018-01-21T05:36:14.605Z,1.37
2018-01-21T05:37:14.620Z,1.5
2018-01-21T05:38:14.612Z,1.42
2018-01-21T05:39:14.648Z,1.33
2018-01-21T05:40:14.656Z,1.41
2018-01-21T05:41:14.434Z,1.41
2018-01-21T05:42:14.673Z,1.45
2018-01-21T05:43:14.478Z,1.33
2018-01-21T05:44:14.462Z,1.34
2018-01-21T05:45:14.471Z,1.3
2018-01-21T05:46:14.741Z,1.24
2018-01-21T05:47:14.506Z,1.18
2018-01-21T05:48:29.547Z,1.3
2018-01-21T05:49:14.865Z,1.2
2018-01-21T05:50:14.770Z,1.18
2018-01-21T05:51:14.811Z,1.2
2018-01-21T05:52:14.814Z,1.22
2018-01-21T05:53:14.809Z,1.18
2018-01-21T05:54:14.599Z,1.15
2018-01-21T05:55:14.857Z,1.12
2018-01-21T05:56:14.377Z,1.09
2018-01-21T05:57:14.635Z,1.15
2018-01-21T05:58:14.629Z,1.15
2018-01-21T05:59:14.913Z,1.22
2018-01-21T06:00:14.900Z,1.23
2018-01-21T06:01:14.666Z,1.16
2018-01-21T06:02:14.813Z,1.18
2018-01-21T06:03:14.941Z,1.15
2018-01-21T06:04:29.632Z,1.16
2018-01-21T06:05:14.975Z,1.18
2018-01-21T06:06:14.734Z,1.26
2018-01-21T06:07:14.746Z,1.23
2018-01-21T06:08:14.771Z,1.11
2018-01-21T06:09:15.137Z,1.22
2018-01-21T06:10:29.465Z,1.2
2018-01-21T06:11:15.048Z,1.11
2018-01-21T06:12:15.075Z,1.16
2018-01-21T06:13:14.932Z,1.18
2018-01-21T06:14:15.111Z,1.14
2018-01-21T06:15:29.796Z,1.14
2018-01-21T06:16:15.135Z,1.16
2018-01-21T06:17:14.978Z,1.09
2018-01-21T06:18:14.905Z,1.14
2018-01-21T06:19:14.914Z,1.16
2018-01-21T06:20:29.842Z,1.05
2018-01-21T06:21:14.921Z,1.09
2018-01-21T06:22:14.962Z,1.06
2018-01-21T06:23:14.806Z,1.16
2018-01-21T06:24:14.976Z,1.15
2018-01-21T06:26:15.263Z,1.24
2018-01-21T06:27:15.275Z,1.15
2018-01-21T06:28:29.700Z,1.23
2018-01-21T06:29:15.285Z,1.24
2018-01-21T06:30:15.060Z,1.2
2018-01-21T06:31:15.335Z,1.29
2018-01-21T06:32:15.088Z,1.14
2018-01-21T06:33:15.081Z,1.15
2018-01-21T06:34:15.384Z,1.14
2018-01-21T06:35:30.035Z,1.16
2018-01-21T06:36:15.127Z,1.12
2018-01-21T06:37:15.403Z,1.26
2018-01-21T06:38:15.166Z,1.33
2018-01-21T06:39:15.157Z,1.34
2018-01-21T06:40:15.438Z,1.37
2018-01-21T06:41:14.933Z,1.36
2018-01-21T06:42:15.546Z,1.44
2018-01-21T06:43:15.462Z,1.32
2018-01-21T06:44:15.489Z,1.48
2018-01-21T06:45:29.930Z,1.4
2018-01-21T06:47:15.262Z,1.33
2018-01-21T06:48:15.529Z,1.33
2018-01-21T06:49:15.304Z,1.4
2018-01-21T06:50:15.696Z,1.36
2018-01-21T06:51:15.566Z,1.33
2018-01-21T06:53:15.710Z,1.34
2018-01-21T06:54:15.624Z,1.42
2018-01-21T06:55:15.651Z,1.4
2018-01-21T06:56:15.647Z,1.47
2018-01-21T06:57:15.654Z,1.59
2018-01-21T06:58:15.413Z,1.5
2018-01-21T07:00:30.111Z,1.4
2018-01-21T07:01:15.457Z,1.47
2018-01-21T07:02:15.757Z,1.42
2018-01-21T07:03:15.743Z,1.5
2018-01-21T07:04:15.492Z,1.51
2018-01-21T07:05:15.780Z,1.44
2018-01-21T07:06:30.446Z,1.36
2018-01-21T07:07:30.471Z,1.55
2018-01-21T07:08:15.557Z,1.54
2018-01-21T07:09:15.804Z,1.54
2018-01-21T07:10:15.311Z,1.63
2018-01-21T07:11:15.323Z,1.66
2018-01-21T07:12:15.600Z,1.59
2018-01-21T07:13:15.900Z,1.54
2018-01-21T07:14:15.867Z,1.63
2018-01-21T07:15:15.646Z,1.55
2018-01-21T07:16:15.913Z,1.52
2018-01-21T07:18:15.935Z,1.5
2018-01-21T07:19:15.708Z,1.65
2018-01-21T07:20:15.953Z,1.44
2018-01-21T07:21:16.055Z,1.52
2018-01-21T07:22:15.718Z,1.54
2018-01-21T07:23:30.680Z,1.47
2018-01-21T07:24:16.013Z,1.51
2018-01-21T07:25:16.007Z,1.5
2018-01-21T07:26:16.029Z,1.41
2018-01-21T07:27:16.061Z,1.41
2018-01-21T07:28:16.065Z,1.47
2018-01-21T07:29:16.062Z,1.44
2018-01-21T07:30:15.844Z,1.41
2018-01-21T07:31:16.110Z,1.54
2018-01-21T07:32:16.103Z,1.44
2018-01-21T07:33:30.815Z,1.36
2018-01-21T07:34:15.875Z,1.44
2018-01-21T07:35:16.139Z,1.48
2018-01-21T07:36:15.932Z,1.44
2018-01-21T07:37:15.936Z,1.44
2018-01-21T07:38:16.177Z,1.4
2018-01-21T07:39:30.878Z,1.42
2018-01-21T07:40:16.206Z,1.36
2018-01-21T07:41:16.224Z,1.34
2018-01-21T07:42:16.237Z,1.3
2018-01-21T07:43:16.270Z,1.32
2018-01-21T07:45:16.268Z,1.34
2018-01-21T07:46:16.290Z,1.32
2018-01-21T07:47:16.087Z,1.42
2018-01-21T07:48:16.309Z,1.42
2018-01-21T07:49:16.072Z,1.52
2018-01-21T07:50:16.334Z,1.62
2018-01-21T07:51:16.123Z,1.6
2018-01-21T07:52:16.391Z,1.65
2018-01-21T07:53:16.387Z,1.58
2018-01-21T07:54:16.501Z,1.65
2018-01-21T07:55:30.853Z,1.58
2018-01-21T07:56:16.199Z,1.68
2018-01-21T07:57:16.192Z,1.63
2018-01-21T07:58:16.470Z,1.58
2018-01-21T07:59:16.313Z,1.62
2018-01-21T08:00:16.506Z,1.63
2018-01-21T08:01:16.478Z,1.72
2018-01-21T08:02:16.255Z,1.66
2018-01-21T08:03:16.555Z,1.69
2018-01-21T08:04:16.568Z,1.65
2018-01-21T08:05:16.576Z,1.59
2018-01-21T08:06:16.297Z,1.6
2018-01-21T08:07:16.310Z,1.62
2018-01-21T08:08:16.572Z,1.69
2018-01-21T08:09:16.590Z,1.66
2018-01-21T08:10:31.306Z,1.63
2018-01-21T08:11:16.375Z,1.6
2018-01-21T08:12:16.376Z,1.6
2018-01-21T08:13:16.391Z,1.59
2018-01-21T08:14:16.672Z,1.59
2018-01-21T08:15:16.417Z,1.65
2018-01-21T08:16:16.206Z,1.72
2018-01-21T08:18:31.138Z,1.7
2018-01-21T08:19:16.759Z,1.73
2018-01-21T08:20:16.779Z,1.68
2018-01-21T08:21:16.525Z,1.66
2018-01-21T08:22:16.768Z,1.6
2018-01-21T08:23:16.791Z,1.59
2018-01-21T08:24:16.550Z,1.6
2018-01-21T08:25:16.814Z,1.69
2018-01-21T08:26:16.836Z,1.68
2018-01-21T08:27:16.858Z,1.7
2018-01-21T08:28:16.912Z,1.73
2018-01-21T08:29:16.851Z,1.68
2018-01-21T08:31:16.632Z,1.72
2018-01-21T08:32:16.664Z,1.73
2018-01-21T08:33:16.936Z,1.79
2018-01-21T08:34:16.940Z,1.8
2018-01-21T08:35:17.026Z,1.84
2018-01-21T08:36:16.707Z,1.9
2018-01-21T08:37:16.992Z,1.88
2018-01-21T08:38:16.998Z,1.9
2018-01-21T08:40:16.781Z,1.9
2018-01-21T08:41:17.025Z,1.83
2018-01-21T08:42:31.466Z,1.81
2018-01-21T08:43:17.081Z,1.83
2018-01-21T08:44:17.074Z,1.8
2018-01-21T08:45:17.093Z,1.65
2018-01-21T08:46:17.124Z,1.62
2018-01-21T08:47:16.848Z,1.65
2018-01-21T08:48:17.108Z,1.69
2018-01-21T08:49:17.145Z,1.73
2018-01-21T08:50:17.155Z,1.8
2018-01-21T08:52:17.168Z,1.79
2018-01-21T08:53:17.196Z,1.77
2018-01-21T08:54:17.204Z,1.79
2018-01-21T08:55:17.211Z,1.86
2018-01-21T08:56:17.261Z,1.84
2018-01-21T08:57:17.253Z,1.93
2018-01-21T08:58:31.930Z,1.95
2018-01-21T08:59:17.273Z,1.86
2018-01-21T09:00:17.272Z,1.87
2018-01-21T09:01:17.288Z,1.9
2018-01-21T09:02:17.413Z,2.05
2018-01-21T09:03:17.309Z,2.02
2018-01-21T09:04:17.104Z,2.1
2018-01-21T09:05:17.365Z,2.18
2018-01-21T09:06:17.115Z,2
2018-01-21T09:07:17.427Z,1.87
2018-01-21T09:11:17.435Z,1.91
2018-01-21T09:12:17.439Z,1.86
2018-01-21T09:13:17.485Z,1.93
2018-01-21T09:14:32.153Z,2.02
2018-01-21T09:15:17.495Z,2.12
2018-01-21T09:16:17.256Z,2.14
2018-01-21T09:17:17.516Z,2.23
2018-01-21T09:18:17.525Z,2.2
2018-01-21T09:19:17.549Z,2.09
2018-01-21T09:20:31.969Z,2.16
2018-01-21T09:23:17.595Z,2
2018-01-21T09:24:17.616Z,1.93
2018-01-21T09:25:32.304Z,1.99
2018-01-21T09:26:17.616Z,1.99
2018-01-21T09:27:17.652Z,1.98
2018-01-21T09:28:17.645Z,1.99
2018-01-21T09:29:17.685Z,2
2018-01-21T09:30:32.357Z,2.02
2018-01-21T09:31:17.534Z,2
2018-01-21T09:32:17.449Z,2.06
2018-01-21T09:33:17.733Z,2.06
2018-01-21T09:34:17.743Z,2.06
2018-01-21T09:35:17.946Z,2.17
2018-01-21T09:36:17.773Z,2.09
2018-01-21T09:37:17.777Z,2.07
2018-01-21T09:38:17.536Z,2
2018-01-21T09:39:17.819Z,2.02
2018-01-21T09:40:17.577Z,2.1
2018-01-21T09:41:17.591Z,2.03
2018-01-21T09:42:17.937Z,2.02
2018-01-21T09:43:17.611Z,2.06
2018-01-21T09:44:17.860Z,2.12
2018-01-21T09:45:32.562Z,1.99
2018-01-21T09:47:17.673Z,1.98
2018-01-21T09:48:18.024Z,2.09
2018-01-21T09:49:17.964Z,2.09
2018-01-21T09:50:17.984Z,2.14
2018-01-21T09:51:17.977Z,2.24
2018-01-21T09:52:17.973Z,2.3
2018-01-21T09:53:32.422Z,2.21
2018-01-21T09:54:18.026Z,2.36
2018-01-21T09:55:18.032Z,2.34
2018-01-21T09:56:18.034Z,2.24
2018-01-21T09:57:18.134Z,2.3
2018-01-21T09:58:17.830Z,2.34
2018-01-21T09:59:18.093Z,2.34
2018-01-21T10:00:32.758Z,2.3
2018-01-21T10:01:18.115Z,2.23
2018-01-21T10:02:18.120Z,2.1
2018-01-21T10:04:17.889Z,2.09
2018-01-21T10:05:18.147Z,2.23
2018-01-21T10:06:18.166Z,2.35
2018-01-21T10:07:18.177Z,2.25
2018-01-21T10:08:18.190Z,2.12
2018-01-21T10:09:18.224Z,2.16
2018-01-21T10:10:18.238Z,2.14
2018-01-21T10:11:18.244Z,2.2
2018-01-21T10:12:18.265Z,2.25
2018-01-21T10:13:18.280Z,2.09
2018-01-21T10:14:18.274Z,2.09
2018-01-21T10:15:18.313Z,1.95
2018-01-21T10:16:18.297Z,2.03
2018-01-21T10:17:32.989Z,2.03
2018-01-21T10:18:18.333Z,2.02
2018-01-21T10:19:18.112Z,2.1
2018-01-21T10:20:18.104Z,2.17
2018-01-21T10:22:18.499Z,2.1
2018-01-21T10:23:18.151Z,2.23
2018-01-21T10:24:18.426Z,2.2
2018-01-21T10:25:18.168Z,2.18
2018-01-21T10:26:18.441Z,2.2
2018-01-21T10:27:18.445Z,2.25
2018-01-21T10:28:18.242Z,2.21
2018-01-21T10:29:18.249Z,2.23
2018-01-21T10:30:18.509Z,2.1
2018-01-21T10:31:18.258Z,2.2
2018-01-21T10:32:18.268Z,2.27
2018-01-21T10:33:33.218Z,2.27
2018-01-21T10:35:18.581Z,2.21
2018-01-21T10:36:18.593Z,2.34
2018-01-21T10:37:18.615Z,2.31
2018-01-21T10:38:18.604Z,2.41
2018-01-21T10:39:18.659Z,2.53
2018-01-21T10:40:18.631Z,2.48
2018-01-21T10:41:18.475Z,2.35
2018-01-21T10:42:18.658Z,2.34
2018-01-21T10:43:18.690Z,2.43
2018-01-21T10:44:18.710Z,2.45
2018-01-21T10:45:33.376Z,2.59
2018-01-21T10:46:18.747Z,2.59
2018-01-21T10:47:18.782Z,2.69
2018-01-21T10:48:33.415Z,2.69
2018-01-21T10:49:33.455Z,2.69
2018-01-21T10:50:18.784Z,2.71
2018-01-21T10:51:18.783Z,2.61
2018-01-21T10:52:18.555Z,2.63
2018-01-21T10:53:18.830Z,2.59
2018-01-21T10:54:18.929Z,2.54
2018-01-21T10:55:18.829Z,2.63
2018-01-21T10:56:18.854Z,2.54
2018-01-21T10:57:18.862Z,2.52
2018-01-21T10:59:18.890Z,2.52
2018-01-21T11:00:18.671Z,2.6
2018-01-21T11:01:18.787Z,2.46
2018-01-21T11:03:18.963Z,2.53
2018-01-21T11:04:18.978Z,2.59
2018-01-21T11:05:33.670Z,2.74
2018-01-21T11:06:18.737Z,2.77
2018-01-21T11:07:19.019Z,2.79
2018-01-21T11:08:19.052Z,2.84
2018-01-21T11:09:18.805Z,2.92
2018-01-21T11:10:19.039Z,3.02
2018-01-21T11:11:19.081Z,2.97
2018-01-21T11:12:19.072Z,2.92
2018-01-21T11:13:19.086Z,2.95
2018-01-21T11:14:19.115Z,2.87
2018-01-21T11:15:19.108Z,2.82
2018-01-21T11:16:18.891Z,2.72
2018-01-21T11:17:33.845Z,2.64
2018-01-21T11:18:33.858Z,2.69
2018-01-21T11:19:19.196Z,2.79
2018-01-21T11:20:33.861Z,2.77
2018-01-21T11:21:19.210Z,2.72
2018-01-21T11:22:18.981Z,2.77
2018-01-21T11:23:19.233Z,2.69
2018-01-21T11:24:19.013Z,2.71
2018-01-21T11:25:19.327Z,2.72
2018-01-21T11:26:19.288Z,2.64
2018-01-21T11:27:19.310Z,2.74
2018-01-21T11:28:19.314Z,2.81
2018-01-21T11:30:19.097Z,2.89
2018-01-21T11:31:19.358Z,2.85
2018-01-21T11:33:19.391Z,2.92
2018-01-21T11:34:19.399Z,2.78
2018-01-21T11:35:19.399Z,2.66
2018-01-21T11:36:19.441Z,2.56
2018-01-21T11:37:19.421Z,2.43
2018-01-21T11:38:19.436Z,2.39
2018-01-21T11:39:19.496Z,2.38
2018-01-21T11:40:19.487Z,2.49
2018-01-21T11:41:19.498Z,2.52
2018-01-21T11:42:19.528Z,2.59
2018-01-21T11:43:19.510Z,2.54
2018-01-21T11:44:19.520Z,2.57
2018-01-21T11:45:19.567Z,2.49
2018-01-21T11:46:19.317Z,2.48
2018-01-21T11:47:19.641Z,2.52
2018-01-21T11:48:19.604Z,2.52
2018-01-21T11:49:34.374Z,2.56
2018-01-21T11:50:19.635Z,2.74
2018-01-21T11:51:19.648Z,2.69
2018-01-21T11:52:34.371Z,2.71
2018-01-21T11:53:19.695Z,2.82
2018-01-21T11:54:19.431Z,2.72
2018-01-21T11:55:19.703Z,2.54
2018-01-21T11:56:19.459Z,2.66
2018-01-21T11:57:19.730Z,2.79
2018-01-21T11:58:19.765Z,2.85
2018-01-21T11:59:19.736Z,2.85
2018-01-21T12:00:19.503Z,2.82
2018-01-21T12:01:19.513Z,2.92
2018-01-21T12:02:34.482Z,2.87
2018-01-21T12:03:19.672Z,2.71
2018-01-21T12:04:19.830Z,2.6
2018-01-21T12:05:19.842Z,2.35
2018-01-21T12:06:19.827Z,2.36
2018-01-21T12:07:19.363Z,2.38
2018-01-21T12:08:34.543Z,2.35
2018-01-21T12:09:19.650Z,2.34
2018-01-21T12:10:19.913Z,2.3
2018-01-21T12:11:19.900Z,2.16
2018-01-21T12:12:19.923Z,2.31
2018-01-21T12:13:19.947Z,2.25
2018-01-21T12:14:20.068Z,2.36
2018-01-21T12:15:19.955Z,2.43
2018-01-21T12:16:19.734Z,2.39
2018-01-21T12:17:19.994Z,2.42
2018-01-21T12:18:20.014Z,2.42
2018-01-21T12:19:20.042Z,2.38
2018-01-21T12:20:20.240Z,2.36
2018-01-21T12:21:20.057Z,2.3
2018-01-21T12:22:20.072Z,2.28
2018-01-21T12:23:19.838Z,2.34
2018-01-21T12:24:34.788Z,2.18
2018-01-21T12:25:19.860Z,2.23
2018-01-21T12:26:20.113Z,2.18
2018-01-21T12:27:20.238Z,2.25
2018-01-21T12:29:20.173Z,2.39
2018-01-21T12:30:19.928Z,2.49
2018-01-21T12:31:20.212Z,2.45
2018-01-21T12:32:20.206Z,2.48
2018-01-21T12:33:20.248Z,2.57
2018-01-21T12:34:19.979Z,2.52
2018-01-21T12:35:20.255Z,2.52
2018-01-21T12:36:19.876Z,2.45
2018-01-21T12:37:20.262Z,2.48
2018-01-21T12:38:34.956Z,2.56
2018-01-21T12:39:20.050Z,2.54
2018-01-21T12:40:35.008Z,2.64
2018-01-21T12:41:20.340Z,2.69
2018-01-21T12:42:20.354Z,2.67
2018-01-21T12:43:20.350Z,2.64
2018-01-21T12:44:20.358Z,2.64
2018-01-21T12:45:20.164Z,2.59
2018-01-21T12:46:20.391Z,2.61
2018-01-21T12:47:20.443Z,2.71
2018-01-21T12:48:20.179Z,2.69
2018-01-21T12:49:20.431Z,2.67
2018-01-21T12:50:20.560Z,2.63
2018-01-21T12:51:20.472Z,2.72
2018-01-21T12:52:20.470Z,2.71
2018-01-21T12:53:20.506Z,2.57
2018-01-21T12:54:20.495Z,2.64
2018-01-21T12:55:35.316Z,2.66
2018-01-21T12:56:20.546Z,2.61
2018-01-21T12:57:20.289Z,2.59
2018-01-21T12:58:20.580Z,2.59
2018-01-21T12:59:20.568Z,2.59
2018-01-21T13:00:20.602Z,2.64
2018-01-21T13:01:20.614Z,2.6
2018-01-21T13:02:20.383Z,2.56
2018-01-21T13:03:20.665Z,2.52
2018-01-21T13:04:35.339Z,2.53
2018-01-21T13:05:20.675Z,2.52
2018-01-21T13:06:20.664Z,2.56
2018-01-21T13:07:20.181Z,2.57
2018-01-21T13:08:20.713Z,2.66
2018-01-21T13:09:20.733Z,2.71
2018-01-21T13:10:20.473Z,2.75
2018-01-21T13:11:20.779Z,2.82
2018-01-21T13:12:20.511Z,2.82
2018-01-21T13:13:20.790Z,2.79
2018-01-21T13:14:20.779Z,2.67
2018-01-21T13:15:20.541Z,2.66
2018-01-21T13:16:20.554Z,2.74
2018-01-21T13:17:20.846Z,2.69
2018-01-21T13:18:20.839Z,2.75
2018-01-21T13:19:20.613Z,2.63
2018-01-21T13:20:20.619Z,2.64
2018-01-21T13:21:20.899Z,2.75
2018-01-21T13:22:20.913Z,2.85
2018-01-21T13:23:20.903Z,2.71
2018-01-21T13:24:20.947Z,2.75
2018-01-21T13:25:20.932Z,2.79
2018-01-21T13:26:21.080Z,2.85
2018-01-21T13:27:35.641Z,2.89
2018-01-21T13:28:20.975Z,2.82
2018-01-21T13:29:20.762Z,2.82
2018-01-21T13:30:20.999Z,2.84
2018-01-21T13:31:21.014Z,2.9
2018-01-21T13:32:21.041Z,2.89
2018-01-21T13:33:20.811Z,2.84
2018-01-21T13:34:21.084Z,2.82
2018-01-21T13:35:21.084Z,2.9
2018-01-21T13:36:20.836Z,2.84
2018-01-21T13:38:21.142Z,2.61
2018-01-21T13:39:21.148Z,2.45
2018-01-21T13:40:21.186Z,2.52
2018-01-21T13:41:21.163Z,2.42
2018-01-21T13:42:21.199Z,2.59
2018-01-21T13:43:35.894Z,2.71
2018-01-21T13:44:21.321Z,2.69
2018-01-21T13:45:21.226Z,2.72
2018-01-21T13:46:21.013Z,2.72
2018-01-21T13:47:21.002Z,2.84
2018-01-21T13:48:21.027Z,2.79
2018-01-21T13:49:21.291Z,2.77
2018-01-21T13:50:21.037Z,2.71
2018-01-21T13:52:21.309Z,2.64
2018-01-21T13:54:21.447Z,2.64
2018-01-21T13:55:21.358Z,2.59
2018-01-21T13:56:20.885Z,2.48
2018-01-21T13:57:21.401Z,2.54
2018-01-21T13:58:21.406Z,2.67
2018-01-21T13:59:36.112Z,2.85
2018-01-21T14:00:21.175Z,2.75
2018-01-21T14:01:21.464Z,2.85
2018-01-21T14:02:21.485Z,2.82
2018-01-21T14:03:21.252Z,2.92
2018-01-21T14:04:21.482Z,2.95
2018-01-21T14:05:21.521Z,2.87
2018-01-21T14:06:21.531Z,2.74
2018-01-21T14:07:21.549Z,2.74
2018-01-21T14:08:21.309Z,2.79
2018-01-21T14:10:21.355Z,2.74